• Join FlightAware (Why Join?)
  • Login
  • US Flag 
09:17PM EDT


 

Airport Tracker/Info


-or-


 

Live Flight TrackerFlight Track Log ✈ N469S ✈ 25-Apr-2013 ✈ KHAO - KCPS

Flight Track Log - Related Links

Times and Time Zones

All times are in EDT time to prevent confusion due to time zone crossing. See the N469S flight status page for this flight to view local times or setup timezone preferences in your user account.

Time Position Orientation Groundspeed Altitude Reporting Facility
EDT Latitude Longitude Course Direction KTS MPH feet Rate Location/Type
08:27AM 39.3667 -84.5667 261° West 109 125 2,100  Level Cincinnati TRACON
08:28AM 39.3833 -84.6000 303° West 128 147 3,000 780 Climbing Cincinnati TRACON
08:29AM 39.3667 -84.6500 247° West 145 167 3,600 660 Climbing Cincinnati TRACON
08:30AM 39.3500 -84.7000 247° West 151 174 4,200 660 Climbing Cincinnati TRACON
08:31AM 39.3500 -84.7500 270° West 143 165 5,100 720 Climbing Cincinnati TRACON
08:32AM 39.3105 -84.8684 261° West  Level FlightAware Approximate
08:32AM 39.3333 -84.8167 252° West 144 166 5,900  Level Cincinnati TRACON
08:33AM 39.3333 -84.8667 270° West 160 184 6,000 60 Climbing Cincinnati TRACON
08:33AM 39.3303 -84.8942 262° West 156 180 6,000  Level Indianapolis Center
08:34AM 39.3219 -84.9647 261° West 168 193 6,000  Level Indianapolis Center
08:35AM 39.3161 -85.0242 263° West 167 192 6,000  Level Indianapolis Center
08:36AM 39.3086 -85.0847 261° West 169 194 6,000  Level Indianapolis Center
08:38AM 39.3011 -85.1433 261° West 166 191 6,000  Level Indianapolis Center
08:39AM 39.2931 -85.2033 260° West 167 192 6,000  Level Indianapolis Center
08:40AM 39.2853 -85.2608 260° West 164 189 6,000  Level Indianapolis Center
08:41AM 39.2778 -85.3189 261° West 164 189 6,000  Level Indianapolis Center
08:42AM 39.2706 -85.3761 261° West 162 186 6,000  Level Indianapolis Center
08:43AM 39.2628 -85.4425 261° West 160 184 6,000  Level Indianapolis Center
08:44AM 39.2556 -85.4989 261° West 158 182 6,000  Level Indianapolis Center
08:45AM 39.2481 -85.5564 260° West 159 183 6,000  Level Indianapolis Center
08:46AM 39.2411 -85.6139 261° West 161 185 6,000  Level Indianapolis Center
08:47AM 39.2325 -85.6711 259° West 161 185 6,000  Level Indianapolis Center
08:48AM 39.2256 -85.7303 261° West 163 188 6,000  Level Indianapolis Center
08:49AM 39.2186 -85.7897 261° West 166 191 6,000  Level Indianapolis Center
08:50AM 39.2103 -85.8506 260° West 170 196 6,000  Level Indianapolis Center
08:51AM 39.2025 -85.9106 261° West 168 193 6,000  Level Indianapolis Center
08:52AM 39.1936 -85.9800 261° West 168 193 6,000  Level Indianapolis Center
08:53AM 39.1858 -86.0403 261° West 168 193 6,000  Level Indianapolis Center
08:54AM 39.1783 -86.0997 261° West 167 192 6,000  Level Indianapolis Center
08:55AM 39.1708 -86.1589 261° West 166 191 6,000  Level Indianapolis Center
08:56AM 39.1628 -86.2164 260° West 164 189 6,000  Level Indianapolis Center
08:57AM 39.1550 -86.2744 260° West 163 188 6,000  Level Indianapolis Center
08:58AM 39.1475 -86.3344 261° West 166 191 6,000  Level Indianapolis Center
08:59AM 39.1394 -86.3928 260° West 166 191 6,000  Level Indianapolis Center
09:00AM 39.1297 -86.4611 260° West 165 190 6,000  Level Indianapolis Center
09:01AM 39.1222 -86.5189 261° West 163 188 6,000  Level Indianapolis Center
09:02AM 39.1150 -86.5772 261° West 164 189 6,000  Level Indianapolis Center
09:03AM 39.1075 -86.6289 259° West 164 189 6,000  Level Indianapolis Center
09:04AM 39.0986 -86.6978 261° West 163 188 6,000  Level Indianapolis Center
09:05AM 39.0906 -86.7547 260° West 162 186 6,000  Level Indianapolis Center
09:06AM 39.0831 -86.8125 261° West 163 188 6,000  Level Indianapolis Center
09:07AM 39.0756 -86.8703 261° West 164 189 6,000  Level Indianapolis Center
09:08AM 39.0672 -86.9278 259° West 164 189 6,000  Level Indianapolis Center
09:09AM 39.0592 -86.9864 260° West 165 190 6,000  Level Indianapolis Center
09:10AM 39.0517 -87.0444 261° West 165 190 6,000  Level Indianapolis Center
09:12AM 39.0419 -87.1125 260° West 162 186 6,000  Level Indianapolis Center
09:13AM 39.0333 -87.1708 259° West 164 189 6,000  Level Indianapolis Center
09:14AM 39.0261 -87.2294 261° West 165 190 6,000  Level Indianapolis Center
09:15AM 39.0175 -87.2864 259° West 164 189 6,000  Level Indianapolis Center
09:16AM 39.0092 -87.3450 260° West 165 190 6,000  Level Indianapolis Center
09:17AM 39.0014 -87.4036 260° West 166 191 6,000  Level Indianapolis Center
09:18AM 38.9939 -87.4622 261° West 167 192 6,000  Level Indianapolis Center
09:19AM 38.9839 -87.5300 259° West 162 186 6,000  Level Indianapolis Center
09:20AM 38.9747 -87.5886 259° West 166 191 6,000  Level Indianapolis Center
09:21AM 38.9667 -87.6461 260° West 164 189 6,000  Level Indianapolis Center
09:22AM 38.9581 -87.7025 259° West 162 186 6,000  Level Indianapolis Center
09:23AM 38.9456 -87.7956 260° West 164 189 6,100  Climbing Kansas City Center
09:24AM 38.9408 -87.8192 256° West 166 191 6,000 -120 Descending Indianapolis Center
09:25AM 38.9322 -87.8758 259° West 163 188 6,000  Level Indianapolis Center
09:26AM 38.9231 -87.9433 260° West 161 185 6,000  Level Indianapolis Center
09:27AM 38.9150 -87.9997 260° West 160 184 6,000  Level Indianapolis Center
09:28AM 38.9064 -88.0575 259° West 162 186 6,000  Level Indianapolis Center
09:29AM 38.8989 -88.1150 261° West 163 188 6,000  Level Indianapolis Center
09:30AM 38.8900 -88.1711 259° West 162 186 6,000  Level Indianapolis Center
09:31AM 38.8806 -88.2278 258° West 160 184 6,000  Level Indianapolis Center
09:32AM 38.8722 -88.2842 259° West 161 185 6,000 60 Level Indianapolis Center
09:33AM 38.8675 -88.3194 260° West 163 188 6,100 60 Climbing Kansas City Center
09:34AM 38.8586 -88.3767 259° West 164 189 6,100  Level Kansas City Center
09:35AM 38.8497 -88.4333 259° West 162 186 6,100  Level Kansas City Center
09:36AM 38.8411 -88.4889 259° West 159 183 6,100  Level Kansas City Center
09:37AM 38.8317 -88.5453 258° West 160 184 6,100  Level Kansas City Center
09:38AM 38.8239 -88.6019 260° West 161 185 6,100  Level Kansas City Center
09:39AM 38.8156 -88.6556 259° West 162 186 6,100  Level Kansas City Center
09:40AM 38.8050 -88.7236 259° West 161 185 6,100 -60 Level Kansas City Center
09:41AM 38.7953 -88.7800 258° West 162 186 6,000 -180 Descending Kansas City Center
09:42AM 38.7858 -88.8397 259° West 170 196 5,800 -240 Descending Kansas City Center
09:43AM 38.7775 -88.8975 260° West 167 192 5,600 -240 Descending Kansas City Center
09:44AM 38.7683 -88.9547 258° West 165 190 5,400 -240 Descending Kansas City Center
09:45AM 38.7569 -89.0206 258° West 167 192 5,200 -240 Descending Kansas City Center
09:46AM 38.7481 -89.0781 259° West 164 189 5,000 -240 Descending Kansas City Center
09:47AM 38.7389 -89.1403 259° West 165 190 4,800 -300 Descending Kansas City Center
09:48AM 38.7317 -89.1322 139° Southeast 164 189 4,500 -360 Descending FAA TRACON SMA TRACON (SMA)
09:48AM 38.7289 -89.1503 259° West 167 192 4,400 -300 Descending FAA TRACON SMA TRACON (SMA)
09:49AM 38.7250 -89.1686 255° West 169 194 4,300 -180 Descending FAA TRACON SMA TRACON (SMA)
09:49AM 38.7214 -89.1911 258° West 171 197 4,300 -180 Level FAA TRACON SMA TRACON (SMA)
09:49AM 38.7189 -89.2097 260° West 170 196 4,200 -180 Descending FAA TRACON SMA TRACON (SMA)
09:50AM 38.7153 -89.2283 256° West 172 198 4,200 -240 Level FAA TRACON SMA TRACON (SMA)
09:50AM 38.7075 -89.2703 257° West 176 203 4,000 -240 Descending FAA TRACON SMA TRACON (SMA)
09:51AM 38.7042 -89.2889 257° West 176 203 4,000  Level FAA TRACON SMA TRACON (SMA)
09:51AM 38.7025 -89.3117 265° West 170 196 4,000  Level FAA TRACON SMA TRACON (SMA)
09:51AM 38.6983 -89.3300 254° West 170 196 4,000  Level FAA TRACON SMA TRACON (SMA)
09:52AM 38.6956 -89.3483 259° West 170 196 4,000  Level FAA TRACON SMA TRACON (SMA)
09:52AM 38.6908 -89.3708 255° West 170 196 4,000  Level FAA TRACON SMA TRACON (SMA)
09:52AM 38.6872 -89.3892 256° West 171 197 4,000  Level FAA TRACON SMA TRACON (SMA)
09:53AM 38.6850 -89.4072 261° West 170 196 4,000  Level FAA TRACON SMA TRACON (SMA)
09:53AM 38.6811 -89.4303 258° West 171 197 4,000  Level FAA TRACON SMA TRACON (SMA)
09:53AM 38.6789 -89.4481 261° West 169 194 4,000  Level FAA TRACON SMA TRACON (SMA)
09:54AM 38.6761 -89.4661 259° West 168 193 4,000  Level FAA TRACON SMA TRACON (SMA)
09:54AM 38.6706 -89.4892 253° West 169 194 4,000  Level FAA TRACON SMA TRACON (SMA)
09:54AM 38.6669 -89.5069 255° West 169 194 4,000 -180 Level FAA TRACON SMA TRACON (SMA)
09:55AM 38.6639 -89.5292 260° West 168 193 3,900 -360 Descending FAA TRACON SMA TRACON (SMA)
09:55AM 38.6600 -89.5478 255° West 171 197 3,800 -360 Descending FAA TRACON SMA TRACON (SMA)
09:55AM 38.6556 -89.5667 253° West 176 203 3,700 -600 Descending FAA TRACON SMA TRACON (SMA)
09:56AM 38.6528 -89.5856 259° West 176 203 3,400 -780 Descending FAA TRACON SMA TRACON (SMA)
09:56AM 38.6494 -89.6092 260° West 178 205 3,200 -600 Descending FAA TRACON SMA TRACON (SMA)
09:56AM 38.6458 -89.6292 257° West 182 209 3,000 -480 Descending FAA TRACON SMA TRACON (SMA)
09:57AM 38.6433 -89.6481 260° West 179 206 2,900 -180 Descending FAA TRACON SMA TRACON (SMA)
09:57AM 38.6392 -89.6717 257° West 176 203 2,900  Level FAA TRACON SMA TRACON (SMA)
09:57AM 38.6364 -89.6894 259° West 170 196 2,900  Level FAA TRACON SMA TRACON (SMA)
09:58AM 38.6336 -89.7075 259° West 168 193 2,900  Level FAA TRACON SMA TRACON (SMA)
09:58AM 38.6297 -89.7294 257° West 166 191 2,900  Level FAA TRACON SMA TRACON (SMA)
09:58AM 38.6269 -89.7469 259° West 163 188 2,900  Level FAA TRACON SMA TRACON (SMA)
09:59AM 38.6236 -89.7642 256° West 163 188 2,900  Level FAA TRACON SMA TRACON (SMA)
09:59AM 38.6197 -89.7858 257° West 163 188 2,900  Level FAA TRACON SMA TRACON (SMA)
09:59AM 38.6169 -89.8028 258° West 160 184 2,900  Level FAA TRACON SMA TRACON (SMA)
10:00AM 38.6133 -89.8194 255° West 159 183 2,900  Level FAA TRACON SMA TRACON (SMA)
10:00AM 38.6106 -89.8403 260° West 157 181 2,900  Level FAA TRACON SMA TRACON (SMA)
10:00AM 38.6078 -89.8569 258° West 156 180 2,900  Level FAA TRACON SMA TRACON (SMA)
10:01AM 38.6047 -89.8731 256° West 155 178 2,900 -180 Level FAA TRACON SMA TRACON (SMA)
10:01AM 38.6017 -89.8942 260° West 156 180 2,800 -480 Descending FAA TRACON SMA TRACON (SMA)
10:01AM 38.5975 -89.9114 253° West 162 186 2,600 -600 Descending FAA TRACON SMA TRACON (SMA)
10:02AM 38.5922 -89.9297 250° West 170 196 2,400 -600 Descending FAA TRACON SMA TRACON (SMA)
10:02AM 38.5867 -89.9514 252° West 170 196 2,200 -600 Descending FAA TRACON SMA TRACON (SMA)
10:02AM 38.5831 -89.9692 255° West 168 193 2,000 -480 Descending FAA TRACON SMA TRACON (SMA)
10:03AM 38.5781 -89.9861 249° West 167 192 1,900 -480 Descending FAA TRACON SMA TRACON (SMA)
10:03AM 38.5719 -90.0058 248° West 157 181 1,700 -780 Descending FAA TRACON SMA TRACON (SMA)
10:03AM 38.5672 -90.0206 248° West 150 173 1,400 -600 Descending FAA TRACON SMA TRACON (SMA)
10:04AM 38.5617 -90.0344 243° Southwest 144 166 1,300 -180 Descending FAA TRACON SMA TRACON (SMA)
10:04AM 38.5606 -90.0378 247° West 143 165 1,300  Level FAA TRACON SMA TRACON (SMA)
10:04AM 38.5606 -90.0378 159° South 143 165 1,300  Level FAA TRACON SMA TRACON (SMA)
10:05AM 38.5606 -90.0378 159° South 143 165 1,300  Level FAA TRACON SMA TRACON (SMA)
10:08AM 38.5667 -90.1460 270° West  Level FlightAware Approximate